Time;durP1;ratioP1;P1;durP2;ratioP2;P2;SDS_P1;SDS_P2;PMS_P1;PMS_P2;Temp;Humidity;BMP_temperature;BMP_pressure;BME280_temperature;BME280_humidity;BME280_pressure;Samples;Min_cycle;Max_cycle;Signal;HPM_P1;HPM_P2
2020/12/02 00:00:28;;;;;;;62.72;30.83;;;4.80;90.80;;;;;;5083784;28;20077;-76
2020/12/02 00:03:02;;;;;;;58.75;29.92;;;4.80;90.90;;;;;;5082934;28;20029;-75
2020/12/02 00:05:31;;;;;;;58.42;29.38;;;4.80;91.00;;;;;;5074259;28;20074;-76
2020/12/02 00:08:39;;;;;;;63.88;31.55;;;4.80;90.90;;;;;;5078970;28;20031;-75
2020/12/02 00:11:08;;;;;;;62.03;30.27;;;4.80;90.90;;;;;;5037835;28;20081;-76
2020/12/02 00:13:38;;;;;;;61.25;31.00;;;4.70;90.90;;;;;;5069736;28;20050;-76
2020/12/02 00:16:05;;;;;;;58.47;28.43;;;4.80;91.00;;;;;;5082345;28;20027;-76
2020/12/02 00:18:33;;;;;;;56.85;27.38;;;4.70;91.00;;;;;;5059202;28;20024;-76
2020/12/02 00:20:59;;;;;;;57.13;27.45;;;4.70;91.10;;;;;;5082482;28;20073;-76
2020/12/02 00:23:24;;;;;;;58.40;28.75;;;4.70;91.10;;;;;;5076784;28;20024;-76
2020/12/02 00:25:50;;;;;;;58.53;28.58;;;4.80;91.00;;;;;;5077563;28;20368;-75
2020/12/02 00:28:16;;;;;;;64.50;30.95;;;4.80;91.00;;;;;;5075177;28;20059;-76
2020/12/02 00:30:43;;;;;;;59.95;29.52;;;4.70;90.90;;;;;;5080819;28;20028;-75
2020/12/02 00:33:11;;;;;;;57.95;29.95;;;4.70;91.30;;;;;;5079079;28;20391;-76
2020/12/02 00:35:38;;;;;;;55.67;27.75;;;4.70;91.10;;;;;;5079246;28;20028;-75
2020/12/02 00:38:07;;;;;;;60.13;29.67;;;4.70;91.10;;;;;;5076828;28;20024;-76
2020/12/02 00:40:33;;;;;;;57.20;30.00;;;4.70;91.10;;;;;;5071850;28;20024;-76
2020/12/02 00:42:59;;;;;;;61.40;30.92;;;4.70;91.10;;;;;;5067056;28;20020;-76
2020/12/02 00:45:25;;;;;;;57.47;28.52;;;4.70;90.90;;;;;;5073988;28;20600;-75
2020/12/02 00:47:51;;;;;;;55.13;28.88;;;4.70;90.90;;;;;;5074153;28;20371;-75
2020/12/02 00:50:20;;;;;;;59.53;29.73;;;4.70;90.90;;;;;;5076072;28;20066;-74
2020/12/02 00:53:05;;;;;;;56.15;28.95;;;4.70;90.90;;;;;;5073942;28;20496;-74
2020/12/02 00:55:31;;;;;;;60.28;29.08;;;4.70;90.80;;;;;;5082684;28;20028;-74
2020/12/02 00:57:58;;;;;;;57.42;29.35;;;4.70;90.80;;;;;;5073914;28;20038;-74
2020/12/02 01:00:27;;;;;;;57.05;28.33;;;4.70;90.80;;;;;;5074161;28;20501;-74
2020/12/02 01:02:59;;;;;;;54.58;27.27;;;4.70;90.90;;;;;;5071512;28;20028;-74
2020/12/02 01:05:26;;;;;;;60.92;29.52;;;4.70;91.20;;;;;;5047221;28;20025;-74
2020/12/02 01:07:52;;;;;;;58.80;29.00;;;4.70;90.90;;;;;;5091458;28;20032;-75
2020/12/02 01:10:18;;;;;;;55.15;27.80;;;4.70;91.00;;;;;;5062279;28;20119;-74
2020/12/02 01:12:46;;;;;;;58.40;27.35;;;4.70;91.10;;;;;;5091795;28;20120;-75
2020/12/02 01:15:19;;;;;;;53.05;27.73;;;4.70;91.10;;;;;;5058974;28;20024;-75
2020/12/02 01:18:21;;;;;;;56.90;29.63;;;4.70;91.10;;;;;;5094442;28;20031;-74
2020/12/02 01:21:03;;;;;;;60.63;27.95;;;4.70;90.90;;;;;;5062301;28;20058;-74
2020/12/02 01:23:29;;;;;;;58.70;29.35;;;4.70;90.80;;;;;;5072676;28;20047;-74
2020/12/02 01:25:55;;;;;;;54.25;27.80;;;4.70;90.90;;;;;;5074640;28;20107;-75
2020/12/02 01:28:28;;;;;;;54.33;28.15;;;4.70;91.10;;;;;;5072015;28;20030;-74
2020/12/02 01:30:56;;;;;;;59.85;28.33;;;4.70;91.00;;;;;;5059419;28;20024;-74
2020/12/02 01:33:22;;;;;;;57.63;29.63;;;4.70;90.90;;;;;;5058540;28;20390;-75
2020/12/02 01:35:49;;;;;;;53.22;28.13;;;4.70;90.80;;;;;;5077139;28;20062;-74
2020/12/02 01:38:30;;;;;;;54.22;28.20;;;4.70;90.90;;;;;;5092906;28;20120;-74
2020/12/02 01:40:56;;;;;;;48.00;25.73;;;4.70;90.90;;;;;;5092470;28;20020;-75
2020/12/02 01:43:22;;;;;;;53.08;26.50;;;4.70;90.90;;;;;;5091838;28;20027;-74
2020/12/02 01:45:50;;;;;;;59.85;29.13;;;4.70;90.90;;;;;;5073456;28;20495;-74
2020/12/02 01:48:48;;;;;;;56.45;28.35;;;4.70;90.80;;;;;;5091036;28;20043;-74
2020/12/02 01:51:16;;;;;;;57.75;28.40;;;4.70;91.00;;;;;;5068597;28;20040;-74
2020/12/02 01:53:58;;;;;;;59.08;29.38;;;4.70;90.90;;;;;;5092046;28;20028;-76
2020/12/02 01:56:46;;;;;;;53.30;26.95;;;4.60;90.90;;;;;;5071108;28;20028;-75
2020/12/02 01:59:35;;;;;;;60.75;29.33;;;4.70;91.00;;;;;;5058765;28;20020;-75
2020/12/02 02:02:38;;;;;;;53.67;27.80;;;4.70;91.00;;;;;;5107252;28;20360;-74
2020/12/02 02:05:21;;;;;;;58.30;28.15;;;4.70;90.90;;;;;;5073307;28;20016;-74
2020/12/02 02:07:47;;;;;;;59.08;29.17;;;4.60;91.00;;;;;;5090352;28;20503;-75
2020/12/02 02:10:21;;;;;;;59.70;29.02;;;4.60;91.00;;;;;;5073635;28;20039;-75
2020/12/02 02:12:49;;;;;;;57.92;29.95;;;4.60;91.20;;;;;;5075978;28;20166;-75
2020/12/02 02:15:40;;;;;;;57.30;29.15;;;4.60;91.10;;;;;;5073111;28;20024;-74
2020/12/02 02:18:10;;;;;;;53.28;28.98;;;4.60;91.10;;;;;;5055735;28;20054;-74
2020/12/02 02:20:42;;;;;;;59.88;28.92;;;4.70;91.00;;;;;;5090820;28;20059;-75
2020/12/02 02:23:11;;;;;;;60.63;29.63;;;4.70;91.10;;;;;;5072930;28;20077;-74
2020/12/02 02:25:37;;;;;;;62.20;30.38;;;4.60;90.90;;;;;;5056926;28;20100;-75
2020/12/02 02:28:04;;;;;;;56.92;29.33;;;4.70;90.80;;;;;;5079756;28;20036;-74
2020/12/02 02:30:30;;;;;;;53.83;28.63;;;4.70;90.90;;;;;;5064766;28;20027;-74
2020/12/02 02:32:56;;;;;;;55.88;29.40;;;4.60;90.90;;;;;;5090518;28;20024;-74
2020/12/02 02:35:22;;;;;;;58.45;28.98;;;4.70;90.90;;;;;;5067278;28;20024;-74
2020/12/02 02:37:48;;;;;;;54.70;28.33;;;4.70;90.80;;;;;;5092753;28;20031;-75
2020/12/02 02:40:14;;;;;;;59.35;29.50;;;4.70;90.90;;;;;;5078193;28;20027;-75
2020/12/02 02:42:47;;;;;;;55.28;28.67;;;4.60;90.80;;;;;;5077692;28;20024;-74
2020/12/02 02:45:25;;;;;;;57.60;30.35;;;4.70;90.60;;;;;;5061418;28;20051;-75
2020/12/02 02:47:57;;;;;;;54.50;27.73;;;4.70;90.70;;;;;;5065306;28;20028;-74
2020/12/02 02:50:24;;;;;;;54.78;28.60;;;4.60;90.80;;;;;;5065080;28;20059;-74
2020/12/02 02:52:51;;;;;;;53.42;27.30;;;4.60;90.90;;;;;;5061414;28;20024;-74
2020/12/02 02:55:23;;;;;;;56.47;28.40;;;4.60;90.70;;;;;;5083089;28;20024;-74
2020/12/02 02:57:49;;;;;;;55.13;27.48;;;4.60;90.80;;;;;;5108307;28;20028;-74
2020/12/02 03:00:42;;;;;;;57.20;28.63;;;4.60;90.80;;;;;;5076189;28;20479;-74
2020/12/02 03:03:10;;;;;;;58.58;28.30;;;4.60;90.90;;;;;;5072467;28;20063;-74
2020/12/02 03:05:36;;;;;;;56.88;28.48;;;4.60;90.90;;;;;;5074628;28;20387;-74
2020/12/02 03:08:07;;;;;;;59.08;29.08;;;4.60;90.90;;;;;;5075548;28;20024;-75
2020/12/02 03:10:35;;;;;;;57.73;29.30;;;4.60;90.90;;;;;;5070900;28;20042;-74
2020/12/02 03:13:14;;;;;;;58.40;29.55;;;4.60;90.80;;;;;;5080500;28;20028;-74
2020/12/02 03:15:40;;;;;;;56.65;27.17;;;4.60;90.90;;;;;;5110873;27;20028;-74
2020/12/02 03:18:07;;;;;;;55.20;29.35;;;4.60;90.80;;;;;;5093682;28;20024;-75
2020/12/02 03:20:38;;;;;;;56.97;27.75;;;4.60;90.80;;;;;;5093224;28;20035;-74
2020/12/02 03:23:05;;;;;;;57.47;29.38;;;4.60;90.90;;;;;;5056145;28;20442;-74
2020/12/02 03:25:32;;;;;;;55.55;27.20;;;4.60;90.90;;;;;;5082121;28;20498;-75
2020/12/02 03:27:59;;;;;;;57.08;27.70;;;4.60;90.90;;;;;;5079007;28;20479;-74
2020/12/02 03:30:26;;;;;;;52.30;26.98;;;4.60;90.90;;;;;;5075700;28;20016;-74
2020/12/02 03:32:52;;;;;;;56.25;27.92;;;4.60;90.80;;;;;;5072526;28;20051;-74
2020/12/02 03:35:17;;;;;;;53.60;25.30;;;4.60;90.90;;;;;;5083762;28;20040;-75
2020/12/02 03:37:43;;;;;;;52.30;25.27;;;4.60;90.90;;;;;;5057738;28;20552;-75
2020/12/02 03:40:10;;;;;;;47.35;24.98;;;4.60;90.90;;;;;;5074789;28;20020;-74
2020/12/02 03:42:36;;;;;;;53.35;27.67;;;4.60;90.80;;;;;;5076666;28;20027;-74
2020/12/02 03:45:06;;;;;;;55.92;28.42;;;4.60;90.90;;;;;;5058435;28;20097;-74
2020/12/02 03:47:31;;;;;;;50.20;25.08;;;4.60;90.80;;;;;;5064500;28;20119;-74
2020/12/02 03:49:58;;;;;;;54.22;27.48;;;4.60;90.80;;;;;;5077632;28;20028;-74
2020/12/02 03:52:23;;;;;;;54.05;27.08;;;4.60;90.80;;;;;;5077556;28;20016;-75
2020/12/02 03:54:49;;;;;;;52.92;26.88;;;4.60;90.80;;;;;;5075120;28;20110;-75
2020/12/02 03:57:15;;;;;;;52.30;26.65;;;4.60;90.80;;;;;;5074986;28;20036;-74
2020/12/02 03:59:40;;;;;;;51.67;26.33;;;4.60;90.80;;;;;;5073891;28;20024;-75
2020/12/02 04:02:06;;;;;;;51.25;25.88;;;4.70;90.60;;;;;;5091808;28;20020;-74
2020/12/02 04:04:32;;;;;;;55.80;27.48;;;4.70;90.70;;;;;;5073374;28;20425;-74
2020/12/02 04:06:57;;;;;;;52.20;26.65;;;4.60;90.70;;;;;;5059458;28;20043;-75
2020/12/02 04:09:23;;;;;;;55.35;27.88;;;4.60;90.70;;;;;;5062622;28;20486;-74
2020/12/02 04:11:49;;;;;;;55.05;28.23;;;4.70;90.60;;;;;;5053293;28;20098;-74
2020/12/02 04:14:14;;;;;;;50.47;26.10;;;4.70;90.60;;;;;;5062058;28;20028;-75
2020/12/02 04:16:41;;;;;;;57.28;27.45;;;4.70;90.70;;;;;;5076360;28;20028;-74
2020/12/02 04:19:06;;;;;;;52.50;26.90;;;4.60;90.70;;;;;;5078099;28;20723;-74
2020/12/02 04:21:32;;;;;;;58.10;28.60;;;4.60;90.70;;;;;;5075251;28;20055;-75
2020/12/02 04:23:58;;;;;;;54.22;28.35;;;4.60;90.90;;;;;;5074326;28;20391;-74
2020/12/02 04:26:26;;;;;;;56.80;27.98;;;4.60;90.80;;;;;;5091491;28;20031;-74
2020/12/02 04:28:52;;;;;;;54.72;28.45;;;4.60;91.00;;;;;;5084342;28;20127;-75
2020/12/02 04:31:18;;;;;;;56.55;28.23;;;4.60;90.80;;;;;;5081360;28;20036;-75
2020/12/02 04:33:44;;;;;;;56.20;27.30;;;4.60;90.70;;;;;;5076390;28;20023;-74
2020/12/02 04:36:10;;;;;;;58.35;29.20;;;4.60;90.70;;;;;;5079661;28;20027;-74
2020/12/02 04:38:36;;;;;;;51.50;25.75;;;4.60;90.60;;;;;;5077687;28;20368;-74
2020/12/02 04:41:05;;;;;;;53.45;26.65;;;4.60;90.70;;;;;;5063253;28;20020;-74
2020/12/02 04:43:38;;;;;;;50.15;25.48;;;4.60;90.70;;;;;;5057907;28;20017;-75
2020/12/02 04:46:20;;;;;;;49.45;25.58;;;4.60;90.70;;;;;;5074224;28;20031;-74
2020/12/02 04:48:50;;;;;;;57.05;26.65;;;4.60;90.80;;;;;;5090196;28;20020;-74
2020/12/02 04:51:27;;;;;;;53.85;27.08;;;4.60;90.70;;;;;;5061268;28;20518;-74
2020/12/02 04:53:56;;;;;;;56.10;27.67;;;4.60;90.80;;;;;;5089382;28;20322;-74
2020/12/02 04:56:25;;;;;;;46.70;24.52;;;4.60;90.80;;;;;;5090854;28;20077;-74
2020/12/02 04:58:51;;;;;;;52.33;25.92;;;4.60;90.80;;;;;;5081263;28;20476;-74
2020/12/02 05:01:29;;;;;;;51.63;26.38;;;4.60;90.70;;;;;;5070367;28;20036;-74
2020/12/02 05:04:03;;;;;;;52.13;25.75;;;4.60;90.70;;;;;;5061693;28;20111;-74
2020/12/02 05:06:37;;;;;;;51.92;26.02;;;4.60;90.80;;;;;;5077830;28;20028;-74
2020/12/02 05:09:24;;;;;;;52.47;27.70;;;4.60;90.70;;;;;;5078511;28;20028;-74
2020/12/02 05:11:53;;;;;;;49.67;25.38;;;4.60;90.60;;;;;;5079178;28;20028;-74
2020/12/02 05:14:18;;;;;;;50.65;26.70;;;4.60;90.70;;;;;;5078015;28;20035;-74
2020/12/02 05:16:45;;;;;;;49.38;25.40;;;4.60;90.60;;;;;;5062178;28;20118;-74
2020/12/02 05:19:16;;;;;;;52.58;26.98;;;4.60;90.50;;;;;;5078372;28;20035;-74
2020/12/02 05:22:04;;;;;;;48.78;25.90;;;4.60;90.60;;;;;;5065531;28;20898;-74
2020/12/02 05:24:40;;;;;;;52.33;26.08;;;4.60;90.60;;;;;;5064708;28;20075;-74
2020/12/02 05:27:06;;;;;;;50.25;26.17;;;4.60;90.70;;;;;;5065541;28;20068;-74
2020/12/02 05:29:54;;;;;;;50.97;27.23;;;4.60;90.60;;;;;;5062340;28;20098;-74
2020/12/02 05:32:27;;;;;;;54.28;27.52;;;4.60;90.60;;;;;;5055714;28;20022;-74
2020/12/02 05:34:54;;;;;;;51.60;26.42;;;4.60;90.70;;;;;;5056931;28;20037;-74
2020/12/02 05:37:30;;;;;;;48.90;25.58;;;4.60;90.70;;;;;;5038674;28;20029;-74
2020/12/02 05:40:03;;;;;;;48.50;26.05;;;4.60;90.60;;;;;;5057512;28;20048;-74
2020/12/02 05:42:36;;;;;;;54.40;27.83;;;4.60;90.60;;;;;;5039538;28;20380;-73
2020/12/02 05:45:20;;;;;;;50.53;26.40;;;4.60;90.40;;;;;;5053561;28;20095;-74
2020/12/02 05:47:51;;;;;;;49.55;26.25;;;4.60;90.60;;;;;;5054578;28;20030;-74
2020/12/02 05:50:17;;;;;;;;;;;4.60;90.60;;;;;;5054724;28;20030;-74
2020/12/02 05:52:45;;;;;;;51.83;25.67;;;4.60;90.40;;;;;;5055966;28;20361;-73
2020/12/02 05:55:31;;;;;;;48.20;25.83;;;4.60;90.20;;;;;;5056386;28;20032;-74
2020/12/02 05:58:00;;;;;;;59.30;27.75;;;4.60;90.20;;;;;;5056202;28;20025;-74
2020/12/02 06:00:36;;;;;;;51.88;27.25;;;4.60;90.30;;;;;;5046810;28;20032;-73
2020/12/02 06:03:02;;;;;;;51.72;25.70;;;4.60;90.30;;;;;;5046307;28;20432;-74
2020/12/02 06:05:31;;;;;;;52.10;26.17;;;4.60;90.50;;;;;;5055077;28;20132;-74
2020/12/02 06:08:00;;;;;;;53.97;26.70;;;4.60;90.40;;;;;;5065653;28;20083;-75
2020/12/02 06:10:43;;;;;;;51.70;27.02;;;4.50;90.40;;;;;;5056681;28;20370;-73
2020/12/02 06:13:34;;;;;;;52.00;25.85;;;4.60;90.50;;;;;;5055207;28;20078;-73
2020/12/02 06:16:00;;;;;;;47.20;25.23;;;4.60;90.30;;;;;;5039731;28;20071;-73
2020/12/02 06:18:32;;;;;;;49.50;25.98;;;4.60;90.20;;;;;;5051647;28;20029;-74
2020/12/02 06:20:58;;;;;;;48.72;24.42;;;4.60;90.30;;;;;;5056077;28;20424;-75
2020/12/02 06:23:55;;;;;;;49.47;25.17;;;4.60;90.20;;;;;;5049819;28;20025;-79
2020/12/02 06:26:43;;;;;;;51.75;25.27;;;4.60;90.30;;;;;;5032217;28;20646;-74
2020/12/02 06:29:34;;;;;;;54.38;27.15;;;4.60;90.30;;;;;;5057437;28;20056;-75
2020/12/02 06:32:21;;;;;;;46.30;24.38;;;4.60;90.40;;;;;;5047260;28;20139;-75
2020/12/02 06:34:49;;;;;;;51.80;27.55;;;4.60;90.30;;;;;;5035785;28;20025;-77
2020/12/02 06:37:24;;;;;;;53.83;27.42;;;4.60;90.40;;;;;;5033730;28;20497;-77
2020/12/02 06:39:58;;;;;;;48.65;24.30;;;4.60;90.10;;;;;;5045592;28;20044;-76
2020/12/02 06:42:35;;;;;;;50.72;26.10;;;4.60;90.00;;;;;;5022584;28;20053;-75
2020/12/02 06:45:17;;;;;;;49.63;26.42;;;4.60;90.10;;;;;;5023729;28;20485;-75
2020/12/02 06:47:48;;;;;;;48.90;24.27;;;4.60;90.20;;;;;;5040608;28;20025;-75
2020/12/02 06:50:17;;;;;;;47.53;25.73;;;4.60;90.20;;;;;;5028749;28;20041;-75
2020/12/02 06:52:43;;;;;;;51.67;25.42;;;4.60;90.00;;;;;;5034973;28;20040;-76
2020/12/02 06:55:23;;;;;;;48.63;25.00;;;4.60;89.80;;;;;;5033609;28;20516;-77
2020/12/02 06:57:59;;;;;;;48.40;25.85;;;4.60;89.90;;;;;;5042457;28;20029;-77
2020/12/02 07:00:27;;;;;;;52.97;24.70;;;4.50;90.20;;;;;;5043685;28;20025;-78
2020/12/02 07:02:56;;;;;;;46.08;25.00;;;4.50;90.00;;;;;;5048330;28;20025;-77
2020/12/02 07:05:27;;;;;;;46.15;24.95;;;4.60;89.00;;;;;;5049374;28;20028;-77
2020/12/02 07:08:10;;;;;;;;;;;4.60;89.30;;;;;;5047107;28;20443;-80
2020/12/02 07:10:36;;;;;;;48.88;24.23;;;4.60;89.20;;;;;;5041633;28;19934;-78
2020/12/02 07:13:02;;;;;;;48.17;24.55;;;4.50;89.10;;;;;;5046595;28;20029;-77
2020/12/02 07:15:28;;;;;;;45.42;24.00;;;4.50;89.40;;;;;;5050268;28;20230;-79
2020/12/02 07:18:07;;;;;;;48.00;25.33;;;4.50;89.40;;;;;;5030819;28;20116;-77
2020/12/02 07:20:33;;;;;;;43.75;23.45;;;4.50;89.50;;;;;;5048633;28;20378;-78
2020/12/02 07:22:59;;;;;;;45.72;24.30;;;4.50;89.80;;;;;;5043176;28;20045;-78
2020/12/02 07:25:26;;;;;;;46.97;23.83;;;4.50;89.20;;;;;;5025742;28;20044;-76
2020/12/02 07:27:53;;;;;;;47.22;25.48;;;4.50;89.30;;;;;;5042405;28;20029;-76
2020/12/02 07:30:36;;;;;;;44.50;23.98;;;4.50;89.20;;;;;;5045831;28;20038;-77
2020/12/02 07:33:20;;;;;;;45.33;24.73;;;4.50;89.20;;;;;;5023337;28;20029;-76
2020/12/02 07:35:47;;;;;;;45.53;23.75;;;4.50;88.90;;;;;;5043048;28;20030;-78
2020/12/02 07:38:15;;;;;;;45.58;23.63;;;4.60;89.40;;;;;;5028731;28;20026;-77
2020/12/02 07:40:42;;;;;;;44.13;23.17;;;4.60;89.40;;;;;;5043624;28;20028;-77
2020/12/02 07:43:27;;;;;;;43.92;23.17;;;4.60;88.80;;;;;;5023742;28;20021;-78
2020/12/02 07:45:57;;;;;;;46.33;24.63;;;4.60;89.00;;;;;;5042650;28;20072;-78
2020/12/02 07:48:25;;;;;;;45.78;24.48;;;4.60;88.80;;;;;;5042329;28;20026;-77
2020/12/02 07:51:00;;;;;;;45.25;23.45;;;4.60;89.10;;;;;;5048464;22;20033;-82
2020/12/02 07:53:46;;;;;;;43.20;23.85;;;4.50;89.20;;;;;;5016147;28;20116;-81
2020/12/02 07:56:41;;;;;;;40.85;21.65;;;4.60;88.70;;;;;;5011402;28;20520;-79
2020/12/02 07:59:18;;;;;;;48.28;24.23;;;4.60;88.50;;;;;;5005058;28;20042;-80
2020/12/02 08:01:50;;;;;;;44.13;23.23;;;4.60;89.00;;;;;;4998418;28;20014;-80
2020/12/02 08:04:22;;;;;;;42.58;22.92;;;4.60;89.10;;;;;;5021116;28;20026;-81
2020/12/02 08:07:12;;;;;;;48.95;23.80;;;4.60;88.90;;;;;;5001098;28;20029;-80
2020/12/02 08:09:54;;;;;;;46.45;23.42;;;4.60;88.70;;;;;;4988656;28;20041;-81
2020/12/02 08:12:28;;;;;;;43.33;22.65;;;4.60;88.60;;;;;;5006431;28;20421;-80
2020/12/02 08:15:09;;;;;;;43.55;23.30;;;4.60;88.90;;;;;;5005170;28;20396;-81
2020/12/02 08:17:38;;;;;;;45.60;23.40;;;4.60;88.70;;;;;;5006581;28;20022;-81
2020/12/02 08:20:31;;;;;;;41.50;23.08;;;4.60;88.60;;;;;;4982846;28;20037;-80
2020/12/02 08:23:10;;;;;;;46.30;23.50;;;4.60;88.50;;;;;;5006469;28;20034;-79
2020/12/02 08:25:45;;;;;;;44.20;23.73;;;4.60;89.00;;;;;;5006160;28;20054;-77
2020/12/02 08:28:18;;;;;;;44.78;23.00;;;4.60;88.90;;;;;;5005946;28;20038;-78
2020/12/02 08:30:43;;;;;;;44.88;24.50;;;4.60;88.50;;;;;;5010959;28;20024;-79
2020/12/02 08:33:15;;;;;;;42.70;22.35;;;4.60;88.70;;;;;;5008246;28;20479;-78
2020/12/02 08:35:41;;;;;;;45.38;24.08;;;4.60;88.40;;;;;;4993294;28;20015;-77
2020/12/02 08:38:16;;;;;;;44.75;23.73;;;4.60;87.70;;;;;;5005194;28;20033;-78
2020/12/02 08:40:46;;;;;;;44.67;23.00;;;4.50;88.10;;;;;;5009460;28;20523;-78
2020/12/02 08:43:22;;;;;;;42.53;23.50;;;4.50;88.50;;;;;;5014407;28;20560;-79
2020/12/02 08:46:14;;;;;;;41.78;22.38;;;4.60;88.60;;;;;;5009689;28;20096;-80
2020/12/02 08:48:42;;;;;;;44.78;24.23;;;4.60;88.50;;;;;;4983392;28;20035;-82
2020/12/02 08:51:14;;;;;;;45.42;23.50;;;4.60;88.70;;;;;;4985044;28;20030;-81
2020/12/02 08:53:41;;;;;;;47.85;24.25;;;4.60;88.70;;;;;;4996487;28;20034;-81
2020/12/02 08:56:23;;;;;;;43.08;23.33;;;4.60;88.80;;;;;;5006190;28;20460;-77
2020/12/02 08:58:49;;;;;;;43.33;22.70;;;4.60;88.90;;;;;;4996462;28;20034;-77
2020/12/02 09:01:14;;;;;;;45.95;24.15;;;4.60;88.90;;;;;;5003009;28;20117;-81
2020/12/02 09:03:40;;;;;;;43.60;22.80;;;4.60;88.80;;;;;;5002205;28;20086;-82
2020/12/02 09:06:07;;;;;;;42.60;23.08;;;4.60;88.90;;;;;;4985776;28;20397;-81
2020/12/02 09:08:33;;;;;;;42.47;23.42;;;4.60;88.70;;;;;;5001439;28;20027;-81
2020/12/02 09:10:58;;;;;;;41.40;21.88;;;4.70;88.80;;;;;;4986934;28;20026;-81
2020/12/02 09:13:24;;;;;;;43.53;23.55;;;4.70;88.40;;;;;;5005653;28;20026;-82
2020/12/02 09:15:50;;;;;;;42.30;21.67;;;4.70;88.50;;;;;;5004317;28;20026;-80
2020/12/02 09:18:15;;;;;;;41.80;22.73;;;4.80;88.30;;;;;;5006895;28;20027;-80
2020/12/02 09:20:41;;;;;;;42.88;22.33;;;4.80;87.70;;;;;;5002098;28;20457;-79
2020/12/02 09:23:07;;;;;;;41.78;22.15;;;4.80;87.60;;;;;;5003932;28;20030;-81
2020/12/02 09:25:32;;;;;;;45.75;22.90;;;4.70;87.80;;;;;;5018682;28;20033;-81
2020/12/02 09:27:58;;;;;;;41.47;21.92;;;4.70;87.70;;;;;;5006500;28;20494;-81
2020/12/02 09:30:24;;;;;;;40.90;21.85;;;4.70;87.80;;;;;;4990494;28;20030;-81
2020/12/02 09:32:49;;;;;;;39.22;22.00;;;4.70;87.60;;;;;;5002042;28;20027;-80
2020/12/02 09:35:15;;;;;;;42.78;22.05;;;4.80;86.80;;;;;;4983229;28;20054;-82
2020/12/02 09:37:41;;;;;;;40.47;22.65;;;4.80;86.70;;;;;;4981637;28;20113;-79
2020/12/02 09:40:12;;;;;;;42.25;22.88;;;4.70;86.60;;;;;;4994983;28;20022;-83
2020/12/02 09:43:01;;;;;;;43.88;23.13;;;4.70;86.60;;;;;;4993595;28;20023;-82
2020/12/02 09:45:49;;;;;;;43.95;23.70;;;4.60;86.40;;;;;;4986731;28;20434;-82
2020/12/02 09:48:17;;;;;;;44.72;24.02;;;4.60;86.70;;;;;;5003876;28;20488;-82
2020/12/02 09:50:44;;;;;;;43.88;22.67;;;4.50;87.00;;;;;;5001208;28;20026;-81
2020/12/02 09:53:28;;;;;;;40.97;23.08;;;4.60;87.40;;;;;;5013148;28;20493;-80
2020/12/02 09:55:56;;;;;;;42.85;23.40;;;4.50;87.60;;;;;;4982400;28;20045;-82
2020/12/02 09:58:21;;;;;;;49.38;24.67;;;4.50;87.60;;;;;;4996016;28;20069;-81
2020/12/02 10:00:47;;;;;;;47.20;24.38;;;4.50;87.70;;;;;;4999575;28;20125;-81
2020/12/02 10:03:35;;;;;;;44.53;23.85;;;4.50;87.70;;;;;;5000718;28;20097;-81
2020/12/02 10:06:15;;;;;;;42.80;22.80;;;4.50;87.60;;;;;;4997847;28;20058;-83
2020/12/02 10:09:05;;;;;;;45.00;24.35;;;4.50;87.70;;;;;;5015245;28;20046;-82
2020/12/02 10:11:54;;;;;;;51.70;26.60;;;4.60;88.30;;;;;;4998303;28;20429;-80
2020/12/02 10:14:51;;;;;;;42.00;23.92;;;4.60;87.60;;;;;;4994175;28;20048;-82
2020/12/02 10:17:38;;;;;;;48.60;25.65;;;4.60;87.50;;;;;;5003271;28;20026;-82
2020/12/02 10:20:16;;;;;;;47.42;24.98;;;4.50;87.60;;;;;;4989869;28;20046;-82
2020/12/02 10:22:57;;;;;;;45.08;25.60;;;4.60;87.70;;;;;;4988318;28;20520;-81
2020/12/02 10:26:03;;;;;;;49.55;25.70;;;4.60;87.80;;;;;;5001617;28;20126;-82
2020/12/02 10:28:57;;;;;;;55.13;26.98;;;4.60;88.10;;;;;;5000092;28;20029;-81
2020/12/02 10:31:32;;;;;;;51.00;25.77;;;4.50;87.80;;;;;;4983197;28;20071;-81
2020/12/02 10:33:58;;;;;;;46.03;25.20;;;4.50;88.20;;;;;;5015513;28;20029;-80
2020/12/02 10:36:30;;;;;;;43.47;23.77;;;4.50;88.20;;;;;;5000649;28;20030;-81
2020/12/02 10:39:00;;;;;;;47.55;26.73;;;4.60;88.20;;;;;;5009632;28;20061;-78
2020/12/02 10:41:32;;;;;;;54.03;27.53;;;4.50;88.30;;;;;;5000139;28;20029;-80
2020/12/02 10:44:05;;;;;;;52.15;26.17;;;4.50;88.10;;;;;;4999348;28;20050;-81
2020/12/02 10:46:56;;;;;;;47.10;25.73;;;4.50;87.90;;;;;;5005262;28;20090;-81
2020/12/02 10:49:29;;;;;;;48.03;25.80;;;4.50;88.20;;;;;;5001450;28;20366;-81
2020/12/02 10:51:57;;;;;;;51.38;27.40;;;4.50;88.20;;;;;;4990488;28;20077;-82
2020/12/02 10:54:24;;;;;;;54.35;26.85;;;4.50;87.80;;;;;;4985012;28;20433;-81
2020/12/02 10:56:56;;;;;;;52.75;27.50;;;4.50;87.90;;;;;;5002771;28;20030;-82
2020/12/02 10:59:25;;;;;;;51.53;26.48;;;4.50;88.00;;;;;;4991440;28;20030;-79
2020/12/02 11:01:52;;;;;;;49.60;26.80;;;4.50;88.20;;;;;;5005138;28;20615;-81
2020/12/02 11:04:20;;;;;;;47.47;25.95;;;4.40;87.90;;;;;;4991520;28;20078;-81
2020/12/02 11:07:16;;;;;;;46.45;24.38;;;4.50;88.10;;;;;;4999864;28;20030;-79
2020/12/02 11:10:09;;;;;;;55.22;26.80;;;4.50;88.10;;;;;;5007249;28;20033;-80
2020/12/02 11:12:38;;;;;;;50.80;26.73;;;4.50;88.10;;;;;;4993981;28;20030;-82
2020/12/02 11:15:27;;;;;;;45.50;25.92;;;4.50;87.60;;;;;;5024682;28;20121;-82
2020/12/02 11:17:54;;;;;;;47.72;26.42;;;4.50;87.90;;;;;;4999654;28;20426;-81
2020/12/02 11:20:28;;;;;;;50.05;27.52;;;4.50;87.80;;;;;;5004553;28;20524;-81
2020/12/02 11:23:03;;;;;;;48.15;26.00;;;4.50;87.90;;;;;;4998587;28;20026;-82
2020/12/02 11:25:57;;;;;;;47.83;25.30;;;4.50;87.60;;;;;;4985164;28;20022;-80
2020/12/02 11:28:23;;;;;;;45.33;24.67;;;4.40;88.00;;;;;;4975091;28;20453;-81
2020/12/02 11:30:49;;;;;;;47.72;25.95;;;4.50;88.10;;;;;;5002141;28;20030;-79
2020/12/02 11:33:17;;;;;;;45.53;24.83;;;4.50;88.20;;;;;;5004903;28;20030;-81
2020/12/02 11:36:21;;;;;;;50.67;25.42;;;4.50;87.80;;;;;;5003590;28;20026;-81
2020/12/02 11:38:58;;;;;;;51.17;24.63;;;4.60;88.00;;;;;;5007261;28;20033;-82
2020/12/02 11:41:38;;;;;;;46.88;24.00;;;4.60;88.30;;;;;;5005000;28;20026;-80
2020/12/02 11:44:16;;;;;;;51.03;26.48;;;4.60;88.10;;;;;;4985859;28;20046;-82
2020/12/02 11:46:48;;;;;;;49.92;25.55;;;4.60;88.10;;;;;;4990340;28;20116;-81
2020/12/02 11:49:26;;;;;;;48.33;26.33;;;4.60;88.00;;;;;;4995732;28;20010;-81
2020/12/02 11:52:36;;;;;;;51.90;27.52;;;4.60;87.80;;;;;;5012619;28;20100;-82
2020/12/02 11:55:11;;;;;;;48.63;25.30;;;4.60;87.90;;;;;;4995862;28;20027;-82
2020/12/02 11:57:45;;;;;;;47.33;25.52;;;4.60;88.20;;;;;;4988181;28;20041;-82
2020/12/02 12:00:10;;;;;;;48.92;26.60;;;4.60;87.50;;;;;;5004084;28;20040;-81
2020/12/02 12:02:44;;;;;;;49.78;25.17;;;4.60;87.50;;;;;;4982548;28;20026;-82
2020/12/02 12:05:27;;;;;;;45.25;24.55;;;4.60;88.00;;;;;;5000254;28;20021;-82
2020/12/02 12:08:04;;;;;;;48.40;25.27;;;4.60;88.00;;;;;;4986926;28;20521;-81
2020/12/02 12:10:45;;;;;;;51.53;27.80;;;4.60;88.20;;;;;;5001333;28;20116;-81
2020/12/02 12:13:11;;;;;;;;;;;4.60;88.20;;;;;;5020006;28;20093;-80
2020/12/02 12:15:47;;;;;;;48.40;25.50;;;4.60;88.10;;;;;;4993163;28;20000;-80
2020/12/02 12:18:52;;;;;;;49.20;26.08;;;4.60;88.20;;;;;;4999486;28;20022;-82
2020/12/02 12:21:22;;;;;;;47.13;25.45;;;4.60;88.20;;;;;;5000696;28;20060;-80
2020/12/02 12:23:59;;;;;;;49.57;25.87;;;4.60;88.30;;;;;;4991399;28;20042;-81
2020/12/02 12:26:32;;;;;;;47.40;23.95;;;4.60;88.20;;;;;;5022509;28;20803;-82
2020/12/02 12:28:58;;;;;;;50.40;25.52;;;4.60;88.30;;;;;;5007892;28;20125;-81
2020/12/02 12:31:54;;;;;;;51.75;26.35;;;4.70;88.00;;;;;;5004244;28;20022;-79
2020/12/02 12:34:26;;;;;;;50.67;26.92;;;4.70;88.00;;;;;;4989916;28;20050;-79
2020/12/02 12:36:57;;;;;;;50.22;25.45;;;4.70;88.20;;;;;;5010522;28;20031;-81
2020/12/02 12:39:36;;;;;;;48.92;25.75;;;4.70;87.90;;;;;;4999958;28;20030;-82
2020/12/02 12:42:03;;;;;;;50.05;25.77;;;4.70;88.20;;;;;;5002609;28;20053;-82
2020/12/02 12:44:35;;;;;;;44.05;24.98;;;4.90;91.40;;;;;;5017106;28;20022;-80
2020/12/02 12:47:22;;;;;;;49.60;26.95;;;4.90;88.20;;;;;;4993720;28;20035;-80
2020/12/02 12:49:48;;;;;;;47.97;25.27;;;4.90;87.90;;;;;;5008132;28;20035;-81
2020/12/02 12:52:19;;;;;;;56.13;28.52;;;4.80;87.30;;;;;;5005821;28;20045;-81
2020/12/02 12:54:45;;;;;;;52.08;26.63;;;4.70;87.80;;;;;;5009385;28;20038;-81
2020/12/02 12:57:15;;;;;;;51.08;27.85;;;4.70;87.80;;;;;;5010021;28;20038;-81
2020/12/02 12:59:41;;;;;;;50.58;29.40;;;4.70;88.00;;;;;;5008157;28;20101;-80
2020/12/02 13:02:17;;;;;;;54.53;28.33;;;4.70;88.10;;;;;;5002475;28;20036;-81
2020/12/02 13:04:43;;;;;;;49.15;27.00;;;4.70;88.30;;;;;;4990152;28;20483;-81
2020/12/02 13:07:21;;;;;;;49.90;27.73;;;4.60;88.30;;;;;;5006873;28;20042;-79